Time;durP1;ratioP1;P1;durP2;ratioP2;P2;SDS_P1;SDS_P2;PMS_P1;PMS_P2;Temp;Humidity;BMP_temperature;BMP_pressure;BME280_temperature;BME280_humidity;BME280_pressure;Samples;Min_cycle;Max_cycle;Signal;HPM_P1;HPM_P2
2023/01/10 00:03:18;;;;;;;13.00;6.60;;;;;;;-10.60;72.00;101492.22;10446969;28;20037;-75
2023/01/10 00:08:21;;;;;;;6.60;3.28;;;;;;;-10.65;71.51;101474.88;10415400;28;20489;-76
2023/01/10 00:13:23;;;;;;;8.30;5.68;;;;;;;-10.67;71.28;101479.47;10421399;28;20037;-76
2023/01/10 00:18:25;;;;;;;9.80;5.40;;;;;;;-10.68;72.47;101469.81;10447515;28;20041;-75
2023/01/10 00:23:27;;;;;;;7.72;4.55;;;;;;;-10.71;72.14;101475.38;10448680;28;20416;-75
2023/01/10 00:28:33;;;;;;;11.98;6.03;;;;;;;-10.69;72.59;101477.91;10442192;28;20044;-75
2023/01/10 00:33:35;;;;;;;8.43;5.40;;;;;;;-10.71;72.12;101464.75;10440855;28;20451;-76
2023/01/10 00:38:38;;;;;;;11.40;5.88;;;;;;;-10.67;72.35;101460.91;10437882;28;20052;-76
2023/01/10 00:43:55;;;;;;;11.77;5.38;;;;;;;-10.61;72.68;101464.00;10441635;28;20037;-76
2023/01/10 00:48:57;;;;;;;8.90;4.68;;;;;;;-10.67;72.61;101458.25;10419436;28;20049;-75
2023/01/10 00:54:00;;;;;;;10.63;5.47;;;;;;;-10.66;72.61;101459.94;10446190;28;20530;-74
2023/01/10 00:59:02;;;;;;;10.25;6.45;;;;;;;-10.62;72.82;101475.59;10439244;28;20060;-76
2023/01/10 01:04:04;;;;;;;10.68;5.28;;;;;;;-10.66;73.56;101467.03;10441065;28;20053;-75
2023/01/10 01:09:07;;;;;;;9.90;4.93;;;;;;;-10.68;72.99;101455.72;10438233;28;20867;-75
2023/01/10 01:14:09;;;;;;;11.75;6.40;;;;;;;-10.66;73.65;101446.66;10439974;28;20037;-75
2023/01/10 01:19:15;;;;;;;12.27;5.60;;;;;;;-10.66;73.96;101454.63;10436270;28;20041;-75
2023/01/10 01:24:23;;;;;;;10.50;6.25;;;;;;;-10.69;74.14;101446.91;10427187;28;20041;-74
2023/01/10 01:29:25;;;;;;;9.10;4.15;;;;;;;-10.68;73.77;101437.16;10456892;28;20038;-75
2023/01/10 01:34:28;;;;;;;12.25;4.93;;;;;;;-10.68;75.50;101438.00;10427574;28;20052;-75
2023/01/10 01:39:30;;;;;;;10.98;6.05;;;;;;;-10.68;76.23;101440.66;10431831;28;20052;-75
2023/01/10 01:44:38;;;;;;;9.18;5.90;;;;;;;-10.69;76.04;101428.38;10444131;28;20033;-76
2023/01/10 01:49:42;;;;;;;9.82;5.68;;;;;;;-10.68;76.64;101430.03;10433048;28;20424;-75
2023/01/10 01:54:48;;;;;;;9.43;6.10;;;;;;;-10.66;77.71;101436.06;10442557;28;20041;-76
2023/01/10 01:59:52;;;;;;;12.52;6.70;;;;;;;-10.67;77.39;101447.63;10443661;28;20041;-76
2023/01/10 02:04:57;;;;;;;11.48;5.93;;;;;;;-10.71;78.89;101438.25;10443597;28;20045;-76
2023/01/10 02:10:06;;;;;;;10.40;5.38;;;;;;;-10.69;79.61;101438.97;10443440;28;20056;-75
2023/01/10 02:15:10;;;;;;;7.60;3.72;;;;;;;-10.69;79.98;101440.78;10444047;28;20037;-76
2023/01/10 02:20:16;;;;;;;9.73;5.35;;;;;;;-10.70;80.22;101449.69;10424961;28;20088;-76
2023/01/10 02:25:24;;;;;;;11.98;5.60;;;;;;;-10.67;80.91;101446.78;10425659;28;20526;-75
2023/01/10 02:30:53;;;;;;;14.95;5.90;;;;;;;-10.65;80.98;101427.13;10424427;28;20029;-75
2023/01/10 02:36:19;;;;;;;10.45;5.07;;;;;;;-10.63;80.56;101434.13;10425585;28;20456;-75
2023/01/10 02:41:36;;;;;;;8.85;4.95;;;;;;;-10.65;80.37;101443.06;10425046;28;20095;-75
2023/01/10 02:46:43;;;;;;;9.93;5.80;;;;;;;-10.69;80.15;101438.97;10454524;28;20033;-76
2023/01/10 02:51:50;;;;;;;8.00;4.83;;;;;;;-10.63;80.08;101431.47;10426173;28;20067;-75
2023/01/10 02:57:01;;;;;;;10.43;6.07;;;;;;;-10.68;80.15;101426.56;10440559;28;20050;-75
2023/01/10 03:02:13;;;;;;;9.07;5.13;;;;;;;-10.66;80.24;101420.16;10441600;28;20048;-75
2023/01/10 03:07:21;;;;;;;11.35;5.38;;;;;;;-10.68;79.67;101427.41;10430426;28;20049;-77
2023/01/10 03:12:30;;;;;;;11.93;6.03;;;;;;;-10.61;79.69;101424.22;10425713;28;20037;-76
2023/01/10 03:17:34;;;;;;;11.85;5.93;;;;;;;-10.60;78.91;101423.25;10441588;28;20049;-76
2023/01/10 03:22:38;;;;;;;8.93;5.30;;;;;;;-10.60;78.99;101415.31;10441595;28;20048;-75
2023/01/10 03:27:59;;;;;;;9.70;5.93;;;;;;;-10.55;79.08;101431.72;10409034;28;20037;-77
2023/01/10 03:33:02;;;;;;;9.95;5.88;;;;;;;-10.53;79.08;101419.16;10412656;28;20313;-74
2023/01/10 03:38:20;;;;;;;11.45;5.88;;;;;;;-10.51;78.92;101430.47;10435331;28;20052;-76
2023/01/10 03:49:03;;;;;;;9.82;6.18;;;;;;;-10.47;78.63;101418.66;10427325;28;20049;-75
2023/01/10 03:54:05;;;;;;;4.65;2.80;;;;;;;-10.45;78.72;101412.25;10444701;28;20056;-73
2023/01/10 03:59:07;;;;;;;5.68;2.95;;;;;;;-10.44;78.69;101408.63;10412901;28;20041;-74
2023/01/10 04:04:11;;;;;;;7.78;4.22;;;;;;;-10.47;78.32;101418.66;10447539;28;20132;-73
2023/01/10 04:09:13;;;;;;;8.35;3.65;;;;;;;-10.48;78.34;101412.50;10443795;28;20045;-74
2023/01/10 04:14:16;;;;;;;11.23;4.50;;;;;;;-10.48;77.66;101401.06;10440544;28;20080;-74
2023/01/10 04:19:18;;;;;;;8.77;3.83;;;;;;;-10.51;78.02;101418.06;10436979;28;20574;-75
2023/01/10 04:24:21;;;;;;;6.13;3.20;;;;;;;-10.49;77.83;101396.72;10446431;28;20053;-73
2023/01/10 04:29:23;;;;;;;8.68;3.95;;;;;;;-10.49;78.21;101402.84;10440989;28;20041;-75
2023/01/10 04:34:25;;;;;;;6.72;4.00;;;;;;;-10.49;78.18;101397.56;10410611;28;20431;-74
2023/01/10 04:39:28;;;;;;;4.40;2.92;;;;;;;-10.52;78.08;101389.84;10428302;28;20045;-75
2023/01/10 04:44:30;;;;;;;7.70;3.97;;;;;;;-10.56;78.81;101403.50;10436624;28;20041;-74
2023/01/10 04:49:33;;;;;;;5.85;2.97;;;;;;;-10.54;78.78;101414.81;10444006;28;20044;-76
2023/01/10 04:54:35;;;;;;;7.90;4.72;;;;;;;-10.58;78.44;101394.84;10447191;28;20038;-74
2023/01/10 04:59:37;;;;;;;9.80;5.13;;;;;;;-10.57;79.18;101407.13;10428282;28;20061;-74
2023/01/10 05:04:40;;;;;;;2.75;2.20;;;;;;;-10.61;79.17;101393.25;10444799;28;20046;-76
2023/01/10 05:09:43;;;;;;;9.00;4.20;;;;;;;-10.53;78.79;101408.56;10422428;28;20041;-76
2023/01/10 05:14:45;;;;;;;4.82;2.55;;;;;;;-10.52;79.04;101397.81;10430461;28;20037;-74
2023/01/10 05:19:47;;;;;;;8.35;3.20;;;;;;;-10.55;78.86;101403.38;10439936;28;20048;-75
2023/01/10 05:24:50;;;;;;;10.60;4.63;;;;;;;-10.54;78.99;101402.41;10440316;28;20045;-74
2023/01/10 05:29:53;;;;;;;7.25;3.55;;;;;;;-10.49;78.50;101407.31;10425142;28;20045;-75
2023/01/10 05:34:55;;;;;;;9.32;4.53;;;;;;;-10.51;79.24;101399.50;10441680;28;20048;-74
2023/01/10 05:39:58;;;;;;;3.92;2.60;;;;;;;-10.49;79.34;101402.03;10440052;28;20042;-75
2023/01/10 05:45:00;;;;;;;5.90;3.20;;;;;;;-10.50;79.27;101401.19;10426147;28;20317;-74
2023/01/10 05:50:02;;;;;;;6.03;3.80;;;;;;;-10.49;79.17;101413.47;10439247;28;20389;-73
2023/01/10 05:55:05;;;;;;;10.00;4.50;;;;;;;-10.53;79.68;101408.56;10440700;28;20427;-75
2023/01/10 06:00:07;;;;;;;2.45;1.95;;;;;;;-10.53;79.03;101408.56;10441361;28;20103;-74
2023/01/10 06:05:13;;;;;;;7.75;3.40;;;;;;;-10.55;79.81;101390.13;10441351;28;20048;-73
2023/01/10 06:10:16;;;;;;;6.57;3.40;;;;;;;-10.56;79.44;101398.19;10443599;28;20037;-74
2023/01/10 06:15:18;;;;;;;9.25;3.45;;;;;;;-10.56;79.56;101379.63;10442747;28;20049;-73
2023/01/10 06:20:20;;;;;;;9.40;4.45;;;;;;;-10.56;79.72;101377.81;10439506;28;20033;-74
2023/01/10 06:25:22;;;;;;;6.88;3.83;;;;;;;-10.54;80.39;101396.25;10439999;28;20048;-74
2023/01/10 06:30:24;;;;;;;7.68;4.40;;;;;;;-10.61;80.28;101381.81;10384273;28;20512;-74
2023/01/10 06:35:28;;;;;;;12.15;4.07;;;;;;;-10.59;81.63;101370.09;10440571;28;20041;-76
2023/01/10 06:40:30;;;;;;;11.93;6.07;;;;;;;-10.63;82.14;101378.44;10422132;28;20049;-74
2023/01/10 06:45:32;;;;;;;9.63;4.00;;;;;;;-10.67;81.95;101378.69;10423391;28;20133;-73
2023/01/10 06:50:34;;;;;;;10.23;5.55;;;;;;;-10.65;82.55;101363.50;10439833;28;20049;-74
2023/01/10 06:55:37;;;;;;;7.15;3.72;;;;;;;-10.67;83.16;101370.75;10440159;28;20053;-74
2023/01/10 07:00:39;;;;;;;10.82;4.95;;;;;;;-10.71;83.39;101358.72;10423542;28;20041;-75
2023/01/10 07:05:41;;;;;;;7.93;4.40;;;;;;;-10.71;83.22;101358.72;10440077;28;20057;-74
2023/01/10 07:10:43;;;;;;;9.43;3.65;;;;;;;-10.67;83.54;101361.94;10444858;28;20061;-74
2023/01/10 07:15:45;;;;;;;8.45;4.13;;;;;;;-10.61;83.86;101353.47;10446921;28;20041;-73
2023/01/10 07:20:48;;;;;;;10.32;3.53;;;;;;;-10.60;83.94;101355.16;10426536;28;20045;-74
2023/01/10 07:25:50;;;;;;;3.50;1.58;;;;;;;-10.56;84.15;101347.81;10446370;28;20496;-74
2023/01/10 07:30:52;;;;;;;11.23;6.53;;;;;;;-10.54;84.92;101343.22;10446794;28;20045;-74
2023/01/10 07:35:55;;;;;;;9.65;4.65;;;;;;;-10.47;84.68;101353.19;10446986;28;20041;-74
2023/01/10 07:41:01;;;;;;;10.18;4.30;;;;;;;-10.43;85.50;101345.78;10427704;28;20049;-74
2023/01/10 07:46:08;;;;;;;4.75;2.80;;;;;;;-10.46;85.43;101352.22;10446196;28;20037;-73
2023/01/10 07:51:10;;;;;;;12.02;5.90;;;;;;;-10.47;85.65;101345.22;10437778;28;20036;-74
2023/01/10 07:56:13;;;;;;;14.55;5.30;;;;;;;-10.43;86.10;101338.69;10446065;28;20041;-74
2023/01/10 08:01:15;;;;;;;9.55;4.43;;;;;;;-10.39;86.56;101355.22;10443345;28;20044;-74
2023/01/10 08:06:18;;;;;;;11.25;5.65;;;;;;;-10.39;86.71;101336.63;10443954;28;20045;-73
2023/01/10 08:11:21;;;;;;;6.00;3.75;;;;;;;-10.39;86.84;101345.44;10443997;28;20052;-74
2023/01/10 08:16:24;;;;;;;7.38;3.72;;;;;;;-10.35;86.72;101344.19;10427368;28;20524;-74
2023/01/10 08:21:26;;;;;;;6.78;4.88;;;;;;;-10.32;86.60;101335.13;10405953;28;20041;-74
2023/01/10 08:26:28;;;;;;;8.18;3.78;;;;;;;-10.28;86.65;101339.22;10428434;28;20044;-73
2023/01/10 08:31:30;;;;;;;13.55;5.85;;;;;;;-10.24;87.03;101335.31;10444711;28;20048;-75
2023/01/10 08:36:33;;;;;;;11.38;3.67;;;;;;;-10.22;86.61;101328.09;10442795;28;20053;-74
2023/01/10 08:41:38;;;;;;;2.75;2.15;;;;;;;-10.16;87.04;101321.38;10444972;28;20053;-75
2023/01/10 08:46:44;;;;;;;12.95;4.35;;;;;;;-10.14;86.31;101322.94;10438289;28;20067;-74
2023/01/10 08:51:47;;;;;;;6.28;4.13;;;;;;;-10.07;86.05;101313.47;10434692;28;20049;-77
2023/01/10 08:56:49;;;;;;;11.93;5.63;;;;;;;-10.01;86.65;101319.25;10444282;28;20041;-75
2023/01/10 09:01:51;;;;;;;7.40;3.78;;;;;;;-9.98;86.30;101321.63;10439942;28;20417;-75
2023/01/10 09:06:54;;;;;;;4.68;2.85;;;;;;;-9.95;86.61;101305.44;10444244;28;20042;-75
2023/01/10 09:11:57;;;;;;;8.80;2.78;;;;;;;-9.87;86.10;101305.63;10441605;28;20042;-75
2023/01/10 09:17:00;;;;;;;12.38;5.63;;;;;;;-9.82;86.27;101309.56;10426265;28;20053;-74
2023/01/10 09:22:06;;;;;;;7.57;2.42;;;;;;;-9.76;85.88;101293.06;10409224;28;20065;-75
2023/01/10 09:27:12;;;;;;;9.85;4.30;;;;;;;-9.73;86.08;101292.81;10425995;28;20048;-75
2023/01/10 09:32:14;;;;;;;9.55;5.13;;;;;;;-9.75;86.44;101278.81;10441342;28;20412;-76
2023/01/10 09:37:16;;;;;;;8.43;4.53;;;;;;;-9.73;86.65;101271.56;10444579;28;20041;-75
2023/01/10 09:42:27;;;;;;;7.40;4.25;;;;;;;-9.65;86.38;101267.41;10445850;28;20087;-75
2023/01/10 09:48:00;;;;;;;8.27;4.32;;;;;;;-9.62;86.79;101273.28;10424742;28;20423;-76
2023/01/10 09:53:09;;;;;;;4.97;2.95;;;;;;;-9.61;87.48;101251.06;10454790;28;20045;-76
2023/01/10 09:58:17;;;;;;;6.97;3.83;;;;;;;-9.55;86.26;101252.31;10440560;28;20049;-76
2023/01/10 10:03:23;;;;;;;4.03;3.13;;;;;;;-9.48;86.39;101250.81;10455593;28;20053;-75
2023/01/10 10:08:29;;;;;;;5.50;3.72;;;;;;;-9.44;86.60;101250.41;10442551;28;20033;-76
2023/01/10 10:13:34;;;;;;;9.25;3.67;;;;;;;-9.38;86.59;101243.69;10439603;28;20398;-75
2023/01/10 10:18:39;;;;;;;3.45;2.20;;;;;;;-9.33;86.58;101235.31;10437528;28;20045;-74
2023/01/10 10:23:44;;;;;;;4.75;3.42;;;;;;;-9.24;87.09;101229.16;10423233;28;20053;-76
2023/01/10 10:29:13;;;;;;;9.00;4.43;;;;;;;-9.18;86.59;101232.13;10419843;28;20029;-74
2023/01/10 10:34:36;;;;;;;6.63;3.63;;;;;;;-9.10;86.77;101234.06;10455518;28;20049;-74
2023/01/10 10:39:49;;;;;;;4.72;2.92;;;;;;;-9.09;86.49;101234.91;10439823;28;20200;-75
2023/01/10 10:44:56;;;;;;;12.40;3.70;;;;;;;-9.02;86.04;101228.06;10445434;28;20041;-74
2023/01/10 10:50:13;;;;;;;8.52;5.10;;;;;;;-8.93;86.42;101225.41;10446677;28;20049;-75
2023/01/10 10:55:17;;;;;;;8.00;3.72;;;;;;;-8.87;86.48;101221.31;10451571;28;20049;-75
2023/01/10 11:00:21;;;;;;;1.40;1.40;;;;;;;-8.80;86.68;101206.50;10433569;28;20053;-74
2023/01/10 11:05:36;;;;;;;4.45;3.47;;;;;;;-8.71;86.06;101200.31;10427506;28;20042;-78
2023/01/10 11:10:40;;;;;;;9.25;3.83;;;;;;;-8.65;85.82;101204.25;10428340;28;20041;-74
2023/01/10 11:15:45;;;;;;;6.57;4.07;;;;;;;-8.60;86.71;101189.53;10416112;28;20042;-75
2023/01/10 11:20:50;;;;;;;9.45;5.18;;;;;;;-8.50;86.11;101202.81;10375251;28;20037;-74
2023/01/10 11:25:53;;;;;;;7.68;4.40;;;;;;;-8.48;86.40;101200.84;10444133;28;20092;-76
2023/01/10 11:30:55;;;;;;;7.78;4.70;;;;;;;-8.39;86.22;101199.97;10429792;28;20053;-77
2023/01/10 11:36:06;;;;;;;2.05;1.55;;;;;;;-8.35;86.76;101193.38;10445207;28;20053;-75
2023/01/10 11:41:33;;;;;;;11.55;6.03;;;;;;;-8.32;87.24;101197.56;10445702;28;20526;-74
2023/01/10 11:46:35;;;;;;;11.18;4.80;;;;;;;-8.28;86.67;101191.78;10426138;28;20419;-74
2023/01/10 11:52:17;;;;;;;9.15;4.72;;;;;;;-8.25;87.48;101182.66;10441903;28;20042;-74
2023/01/10 11:57:25;;;;;;;4.97;3.15;;;;;;;-8.18;86.68;101172.25;10400990;28;20045;-73
2023/01/10 12:02:34;;;;;;;7.88;3.95;;;;;;;-8.11;87.07;101168.88;10461783;28;20068;-74
2023/01/10 12:08:05;;;;;;;8.25;5.10;;;;;;;-8.06;87.59;101190.56;10441313;28;20048;-75
2023/01/10 12:13:15;;;;;;;7.13;3.35;;;;;;;-8.00;88.40;101171.31;10445471;28;20462;-74
2023/01/10 12:18:18;;;;;;;5.32;2.08;;;;;;;-7.94;87.95;101165.44;10411655;28;20045;-74
2023/01/10 12:23:22;;;;;;;5.80;3.35;;;;;;;-7.89;87.68;101175.63;10434695;28;20046;-73
2023/01/10 12:28:29;;;;;;;7.22;3.65;;;;;;;-7.81;87.98;101178.41;10445852;28;20529;-73
2023/01/10 12:33:45;;;;;;;4.40;3.15;;;;;;;-7.75;87.43;101190.28;10441974;28;20041;-73
2023/01/10 12:39:05;;;;;;;3.25;1.67;;;;;;;-7.67;88.04;101169.88;10426572;28;20094;-73
2023/01/10 12:44:14;;;;;;;8.60;3.50;;;;;;;-7.61;88.35;101153.31;10423435;28;20044;-74
2023/01/10 12:49:36;;;;;;;3.72;2.95;;;;;;;-7.56;88.71;101166.16;10406218;28;20048;-73
2023/01/10 12:54:38;;;;;;;6.35;2.80;;;;;;;-7.53;89.09;101160.53;10416860;28;20037;-74
2023/01/10 12:59:42;;;;;;;6.97;3.60;;;;;;;-7.48;89.34;101162.75;10439133;28;20428;-75
2023/01/10 13:04:51;;;;;;;8.50;4.38;;;;;;;-7.40;89.52;101166.34;10438117;28;20388;-74
2023/01/10 13:09:54;;;;;;;9.65;3.75;;;;;;;-7.35;89.49;101150.72;10410420;28;20041;-75
2023/01/10 13:15:36;;;;;;;1.67;1.33;;;;;;;-7.28;89.41;101160.78;10406807;28;20057;-76
2023/01/10 13:20:40;;;;;;;9.63;4.95;;;;;;;-7.22;89.20;101158.34;10431712;28;20050;-74
2023/01/10 13:25:52;;;;;;;4.30;2.90;;;;;;;-7.18;89.64;101175.69;10420006;28;20043;-73
2023/01/10 13:30:57;;;;;;;9.10;3.63;;;;;;;-7.14;89.99;101165.56;10435814;28;20048;-73
2023/01/10 13:36:09;;;;;;;3.30;2.72;;;;;;;-7.10;90.56;101169.63;10448659;28;20052;-73
2023/01/10 13:43:17;;;;;;;7.68;4.03;;;;;;;-7.05;91.42;101160.16;10436720;28;20439;-74
2023/01/10 13:46:37;;;;;;;10.77;4.22;;;;;;;-6.99;90.87;101151.53;10443061;28;20049;-73
2023/01/10 13:52:17;;;;;;;4.47;2.90;;;;;;;-6.91;91.01;101157.94;10434998;28;20053;-75
2023/01/10 13:57:58;;;;;;;6.10;3.92;;;;;;;-6.83;91.13;101157.97;10405063;28;20041;-75
2023/01/10 14:03:00;;;;;;;6.20;3.17;;;;;;;-6.75;91.71;101160.72;10425211;28;20049;-72
2023/01/10 14:08:14;;;;;;;3.30;2.13;;;;;;;-6.63;91.99;101147.94;10427063;28;20037;-76
2023/01/10 14:13:20;;;;;;;3.05;1.88;;;;;;;-6.53;92.00;101152.19;10438957;28;20415;-73
2023/01/10 14:18:29;;;;;;;3.72;2.63;;;;;;;-6.42;92.25;101157.28;10452879;28;20049;-73
2023/01/10 14:23:43;;;;;;;4.35;2.60;;;;;;;-6.34;91.50;101152.97;10441817;28;20052;-74
2023/01/10 14:28:45;;;;;;;5.78;2.08;;;;;;;-6.30;92.17;101151.66;10437549;28;20044;-73
2023/01/10 14:33:47;;;;;;;4.38;2.65;;;;;;;-6.28;91.89;101145.13;10428572;28;20044;-73
2023/01/10 14:38:52;;;;;;;4.43;2.40;;;;;;;-6.21;92.37;101143.53;10432716;28;20049;-75
2023/01/10 14:44:17;;;;;;;3.95;3.28;;;;;;;-6.16;92.71;101138.53;10430274;28;20058;-77
2023/01/10 14:49:29;;;;;;;2.70;2.42;;;;;;;-6.10;92.52;101134.38;10426131;28;20037;-80
2023/01/10 14:54:32;;;;;;;6.43;3.05;;;;;;;-5.98;92.82;101140.28;10440759;28;20052;-78
2023/01/10 14:59:35;;;;;;;4.55;2.42;;;;;;;-5.90;92.88;101134.94;10408980;28;20099;-73
2023/01/10 15:04:53;;;;;;;6.68;4.07;;;;;;;-5.83;92.47;101126.09;10428367;28;20045;-75
2023/01/10 15:10:01;;;;;;;3.67;2.53;;;;;;;-5.75;92.70;101122.59;10439703;28;20053;-75
2023/01/10 15:15:06;;;;;;;7.43;3.88;;;;;;;-5.67;92.45;101124.47;10420817;28;20496;-74
2023/01/10 15:20:17;;;;;;;6.03;2.70;;;;;;;-5.61;92.84;101123.81;10407411;28;20072;-73
2023/01/10 15:25:19;;;;;;;2.13;1.52;;;;;;;-5.55;92.29;101118.66;10421655;28;20053;-71
2023/01/10 15:30:23;;;;;;;2.72;1.75;;;;;;;-5.39;92.33;101104.44;10423837;28;20531;-78
2023/01/10 15:35:28;;;;;;;2.70;2.50;;;;;;;-5.28;92.29;101104.13;10422679;28;20041;-75
2023/01/10 15:40:32;;;;;;;9.13;3.58;;;;;;;-5.24;92.21;101102.78;10442613;28;20057;-73
2023/01/10 15:45:37;;;;;;;7.60;2.67;;;;;;;-5.21;92.33;101120.34;10423736;28;20048;-73
2023/01/10 15:50:56;;;;;;;6.38;3.00;;;;;;;-5.24;91.87;101110.81;10426800;28;20048;-74
2023/01/10 15:56:09;;;;;;;3.45;2.13;;;;;;;-5.27;92.06;101121.00;10440726;28;20049;-74
2023/01/10 16:01:15;;;;;;;5.10;2.97;;;;;;;-5.27;92.16;101121.00;10425285;28;20424;-75
2023/01/10 16:06:43;;;;;;;5.25;2.58;;;;;;;-5.25;91.83;101125.19;10427848;28;20083;-77
2023/01/10 16:17:10;;;;;;;4.75;3.03;;;;;;;-5.18;92.49;101125.38;10430887;28;20049;-74
2023/01/10 16:22:15;;;;;;;8.45;3.08;;;;;;;-5.12;92.68;101108.66;10444001;28;20033;-77
2023/01/10 16:27:18;;;;;;;6.82;3.42;;;;;;;-5.04;92.77;101110.47;10436271;28;20050;-77
2023/01/10 16:32:20;;;;;;;5.43;3.13;;;;;;;-4.99;92.75;101108.16;10445582;28;20064;-75
2023/01/10 16:37:26;;;;;;;10.57;3.60;;;;;;;-4.92;92.69;101106.44;10439302;28;20056;-76
2023/01/10 16:47:54;;;;;;;5.85;3.38;;;;;;;-4.81;92.70;101103.44;10404145;28;20045;-76
2023/01/10 16:52:57;;;;;;;2.95;1.45;;;;;;;-4.76;93.12;101103.75;10420078;28;20482;-74
2023/01/10 16:57:59;;;;;;;5.63;3.38;;;;;;;-4.66;93.40;101106.25;10431514;28;20045;-75
2023/01/10 17:03:13;;;;;;;5.20;2.70;;;;;;;-4.63;93.41;101101.41;10443343;28;20037;-75
2023/01/10 17:08:21;;;;;;;3.13;1.85;;;;;;;-4.57;93.44;101106.06;10453283;28;20052;-76
2023/01/10 17:13:26;;;;;;;3.90;2.00;;;;;;;-4.47;94.01;101102.38;10443704;28;20056;-74
2023/01/10 17:18:32;;;;;;;4.68;3.03;;;;;;;-4.41;94.04;101107.84;10435604;28;20041;-75
2023/01/10 17:23:34;;;;;;;6.55;3.15;;;;;;;-4.36;93.96;101101.97;10437893;28;20566;-77
2023/01/10 17:28:36;;;;;;;4.75;2.50;;;;;;;-4.30;94.20;101101.31;10444036;28;20519;-75
2023/01/10 17:33:38;;;;;;;3.53;1.77;;;;;;;-4.20;94.59;101104.59;10422555;28;20041;-74
2023/01/10 17:38:41;;;;;;;4.38;2.35;;;;;;;-4.17;94.78;101103.41;10380363;28;20068;-71
2023/01/10 17:43:44;;;;;;;3.35;1.38;;;;;;;-4.12;94.79;101101.06;10439874;28;20037;-75
2023/01/10 17:48:46;;;;;;;1.02;1.02;;;;;;;-4.08;94.86;101100.53;10429665;28;20037;-75
2023/01/10 17:53:48;;;;;;;3.30;2.33;;;;;;;-4.05;95.29;101092.13;10432502;28;20048;-75
2023/01/10 17:58:51;;;;;;;3.53;2.35;;;;;;;-3.95;95.72;101094.63;10443590;28;20054;-75
2023/01/10 18:03:53;;;;;;;4.20;2.35;;;;;;;-3.90;95.85;101083.38;10429839;28;20519;-76
2023/01/10 18:08:56;;;;;;;2.45;1.38;;;;;;;-3.87;96.03;101085.69;10409096;28;20050;-76
2023/01/10 18:13:58;;;;;;;5.57;2.92;;;;;;;-3.83;95.92;101095.03;10457954;28;20048;-77
2023/01/10 18:19:00;;;;;;;2.80;2.45;;;;;;;-3.79;95.71;101086.50;10408324;28;20061;-76
2023/01/10 18:24:03;;;;;;;4.57;1.95;;;;;;;-3.73;96.16;101091.13;10437491;28;20040;-76
2023/01/10 18:29:05;;;;;;;2.67;2.22;;;;;;;-3.65;96.02;101083.03;10418947;28;20049;-76
2023/01/10 18:34:07;;;;;;;3.22;2.25;;;;;;;-3.61;96.31;101091.56;10433058;28;20496;-75
2023/01/10 18:39:10;;;;;;;4.60;2.28;;;;;;;-3.57;96.31;101095.56;10443048;28;20068;-76
2023/01/10 18:44:12;;;;;;;5.50;2.53;;;;;;;-3.49;96.36;101090.13;10413217;28;20091;-76
2023/01/10 18:49:16;;;;;;;2.17;1.63;;;;;;;-3.42;96.15;101093.78;10431581;28;20053;-76
2023/01/10 18:54:19;;;;;;;3.08;1.33;;;;;;;-3.37;96.35;101101.28;10404982;28;20046;-77
2023/01/10 18:59:21;;;;;;;2.25;1.38;;;;;;;-3.35;96.15;101086.69;10419480;28;20050;-75
2023/01/10 19:04:24;;;;;;;2.55;1.30;;;;;;;-3.28;95.79;101105.59;10389879;28;20057;-74
2023/01/10 19:09:26;;;;;;;2.78;1.98;;;;;;;-3.23;95.48;101113.09;10381682;28;20394;-74
2023/01/10 19:14:29;;;;;;;5.22;2.08;;;;;;;-3.21;95.34;101108.38;10384503;28;20053;-76
2023/01/10 19:19:31;;;;;;;4.72;1.83;;;;;;;-3.18;95.13;101099.97;10411012;28;20632;-76
2023/01/10 19:24:36;;;;;;;2.42;1.73;;;;;;;-3.15;95.03;101088.88;10370545;28;20061;-76
2023/01/10 19:29:47;;;;;;;0.63;0.63;;;;;;;-3.16;94.77;101103.31;10399029;28;20416;-77
2023/01/10 19:34:49;;;;;;;2.67;2.05;;;;;;;-3.16;94.26;101100.63;10408219;28;20037;-76
2023/01/10 19:39:52;;;;;;;3.70;2.25;;;;;;;-3.13;94.42;101097.56;10384325;28;20041;-75
2023/01/10 19:44:54;;;;;;;1.92;1.27;;;;;;;-3.13;94.45;101102.94;10403056;28;20061;-77
2023/01/10 19:49:56;;;;;;;3.53;1.95;;;;;;;-3.11;94.21;101108.97;10396143;28;20041;-75
2023/01/10 19:54:59;;;;;;;3.67;2.47;;;;;;;-3.09;94.63;101098.91;10389482;28;20516;-82
2023/01/10 20:00:01;;;;;;;6.75;2.75;;;;;;;-3.09;94.46;101107.78;10385193;28;20045;-83
2023/01/10 20:05:13;;;;;;;1.83;1.60;;;;;;;-3.04;94.74;101107.25;10391290;28;20684;-81
2023/01/10 20:10:15;;;;;;;3.95;3.13;;;;;;;-3.02;94.64;101107.88;10389181;28;20046;-80
2023/01/10 20:15:18;;;;;;;10.38;3.55;;;;;;;-2.99;94.60;101118.25;10400041;28;20045;-75
2023/01/10 20:20:20;;;;;;;4.07;2.80;;;;;;;-2.95;94.75;101119.59;10388583;28;20058;-74
2023/01/10 20:25:22;;;;;;;3.40;2.28;;;;;;;-2.93;94.78;101117.56;10398189;28;20050;-73
2023/01/10 20:30:24;;;;;;;2.20;1.58;;;;;;;-2.91;94.74;101115.50;10405408;28;20052;-75
2023/01/10 20:35:27;;;;;;;3.58;2.95;;;;;;;-2.87;94.68;101113.28;10395841;28;20046;-78
2023/01/10 20:40:29;;;;;;;3.28;2.65;;;;;;;-2.87;94.53;101103.38;10419149;28;20056;-78
2023/01/10 20:45:33;;;;;;;2.25;0.82;;;;;;;-2.84;94.57;101119.13;10457335;28;20041;-87
2023/01/10 20:50:35;;;;;;;4.05;2.35;;;;;;;-2.83;94.27;101110.06;10444262;28;20041;-77
2023/01/10 20:55:37;;;;;;;1.77;1.40;;;;;;;-2.80;94.05;101107.00;10436690;28;20033;-73
2023/01/10 21:00:39;;;;;;;1.98;1.08;;;;;;;-2.81;94.13;101104.50;10443344;28;20508;-76
2023/01/10 21:05:50;;;;;;;2.03;1.73;;;;;;;-2.81;93.68;101102.66;10404436;28;20042;-74
2023/01/10 21:10:53;;;;;;;2.38;1.77;;;;;;;-2.81;93.54;101102.66;10442372;28;20052;-75
2023/01/10 21:15:56;;;;;;;3.10;1.30;;;;;;;-2.81;93.67;101099.97;10445329;28;20045;-74
2023/01/10 21:20:58;;;;;;;2.03;1.67;;;;;;;-2.80;93.49;101104.31;10432533;28;20063;-74
2023/01/10 21:26:03;;;;;;;2.85;1.70;;;;;;;-2.79;92.76;101111.34;10434465;28;20044;-74
2023/01/10 21:31:06;;;;;;;5.53;2.95;;;;;;;-2.77;92.97;101109.34;10447121;28;20033;-76
2023/01/10 21:36:11;;;;;;;2.78;1.52;;;;;;;-2.77;92.46;101112.03;10455678;28;20041;-76
2023/01/10 21:46:39;;;;;;;3.45;1.83;;;;;;;-2.75;92.46;101119.91;10458933;28;20040;-72
2023/01/10 21:51:43;;;;;;;2.63;1.40;;;;;;;-2.73;92.85;101128.63;10435266;28;20048;-75
2023/01/10 21:56:45;;;;;;;2.63;1.40;;;;;;;-2.74;92.74;101132.31;10435072;28;20391;-75
2023/01/10 22:01:47;;;;;;;3.67;1.83;;;;;;;-2.75;92.96;101123.44;10421126;28;20056;-74
2023/01/10 22:06:49;;;;;;;2.30;2.10;;;;;;;-2.76;93.02;101126.28;10433823;28;20044;-76
2023/01/10 22:11:52;;;;;;;3.08;1.50;;;;;;;-2.72;92.51;101129.44;10423392;28;20038;-76
2023/01/10 22:16:54;;;;;;;2.53;2.15;;;;;;;-2.72;92.47;101124.06;10411720;28;20045;-73
2023/01/10 22:21:56;;;;;;;1.20;1.13;;;;;;;-2.69;92.36;101129.06;10422296;28;20045;-74
2023/01/10 22:26:59;;;;;;;0.82;0.82;;;;;;;-2.69;92.33;101121.84;10427570;28;20412;-77
2023/01/10 22:32:01;;;;;;;5.15;2.03;;;;;;;-2.69;92.32;101123.72;10447127;28;20046;-75
2023/01/10 22:37:04;;;;;;;1.75;1.48;;;;;;;-2.69;92.10;101124.53;10442814;28;20079;-75
2023/01/10 22:42:10;;;;;;;2.13;1.58;;;;;;;-2.68;92.13;101117.31;10425544;28;20049;-74
2023/01/10 22:47:13;;;;;;;4.03;2.78;;;;;;;-2.68;92.23;101118.16;10443450;28;20527;-75
2023/01/10 22:52:15;;;;;;;8.43;3.45;;;;;;;-2.66;91.91;101128.69;10421764;28;20527;-74
2023/01/10 22:57:18;;;;;;;4.78;2.78;;;;;;;-2.63;92.51;101128.34;10438576;28;20041;-76
2023/01/10 23:02:20;;;;;;;3.92;2.35;;;;;;;-2.62;92.27;101130.00;10405666;28;20053;-77
2023/01/10 23:07:22;;;;;;;6.28;3.00;;;;;;;-2.60;92.35;101128.00;10439931;28;20033;-78
2023/01/10 23:12:26;;;;;;;2.53;1.92;;;;;;;-2.59;92.44;101117.06;10438916;28;20042;-82
2023/01/10 23:17:28;;;;;;;2.78;2.25;;;;;;;-2.55;92.49;101125.59;10434773;28;20034;-80
2023/01/10 23:22:31;;;;;;;4.45;2.08;;;;;;;-2.55;92.34;101125.59;10436977;28;20045;-79
2023/01/10 23:27:33;;;;;;;5.32;2.35;;;;;;;-2.53;92.29;101126.22;10442337;28;20045;-79
2023/01/10 23:32:36;;;;;;;5.15;2.65;;;;;;;-2.52;91.74;101127.91;10441045;28;20033;-78
2023/01/10 23:37:38;;;;;;;4.63;2.90;;;;;;;-2.50;91.87;101128.53;10438255;28;20052;-77